Main page
METAR-TAF:

METAR-TAF

Airports :

Mitiga International Airport

Tripoli, Libya

latitude: 32-54N, longitude: 13-17E, elevation: 11 m

METAR: missing

Time: 03:43 (01:43 UTC)

Forecast

The report was made 8 hours and 43 minutes ago, at 17:00 UTC
Forecast valid from 10 at 18 UTC to 11 at 18 UTC
Wind 15 kt from the East with gusts up to 25 kt
Visibility: 8000 m
Few clouds at a height of 2500 ft
Probability 40% :
Temporary
from 10 at 18 UTC to 10 at 24 UTC
Visibility: 3000 m
Blowing sand
Becoming
from 11 at 06 UTC to 11 at 08 UTC
Wind 12 kt from the East
Visibility: 8000 m

TAF: HLLM 101700Z 1018/1118 09015G25KT 8000 FEW025 PROB40 TEMPO 1018/1024 3000 BLSA BECMG 1106/1108 09012KT 8000 NSC

Weather observations and forecasts of more than 4000 airports (METAR and TAF reports).

The available stations are represented by yellow and red dots on the map.

Hover mouse over dot to see the name of the station.

Then click to see weather observations and forecasts.

To change the map : click on the green buttons with a black cross to zoom in, on the green button with a dash to zoom out, or on the green arrows for adjacent maps.


METAR-TAF: